Time;durP1;ratioP1;P1;durP2;ratioP2;P2;SDS_P1;SDS_P2;PMS_P1;PMS_P2;Temp;Humidity;BMP_temperature;BMP_pressure;BME280_temperature;BME280_humidity;BME280_pressure;Samples;Min_cycle;Max_cycle;Signal;HPM_P1;HPM_P2
2022/08/03 00:01:21;;;;;;;2.28;1.73;;;;;;;30.18;33.21;96768.50;5095521;28;20028;-35
2022/08/03 00:03:47;;;;;;;1.85;1.63;;;;;;;30.25;32.67;96775.44;5095686;28;20031;-36
2022/08/03 00:06:12;;;;;;;2.55;1.65;;;;;;;30.17;33.35;96767.00;5095655;28;20022;-35
2022/08/03 00:08:38;;;;;;;2.40;1.85;;;;;;;30.16;33.24;96767.56;5095665;28;20060;-35
2022/08/03 00:11:05;;;;;;;1.50;1.40;;;;;;;30.21;32.81;96758.25;5095546;28;20063;-35
2022/08/03 00:13:32;;;;;;;2.53;1.77;;;;;;;30.17;33.08;96758.59;5094840;28;20020;-35
2022/08/03 00:15:57;;;;;;;2.47;1.73;;;;;;;30.21;32.88;96761.06;5095452;28;20435;-35
2022/08/03 00:18:23;;;;;;;3.47;2.13;;;;;;;30.25;33.14;96764.25;5095283;28;20081;-35
2022/08/03 00:20:49;;;;;;;2.75;1.67;;;;;;;30.16;33.31;96759.19;5095537;28;20095;-35
2022/08/03 00:23:14;;;;;;;1.70;1.60;;;;;;;30.20;33.22;96763.09;5095407;28;20034;-35
2022/08/03 00:25:40;;;;;;;1.92;1.80;;;;;;;30.08;33.08;96753.53;5095454;28;20103;-35
2022/08/03 00:28:05;;;;;;;1.80;1.50;;;;;;;30.11;33.41;96760.81;5095304;28;20098;-35
2022/08/03 00:30:32;;;;;;;1.60;1.50;;;;;;;30.24;33.28;96760.72;5095028;28;20390;-35
2022/08/03 00:32:58;;;;;;;1.73;1.63;;;;;;;30.25;32.91;96761.47;5095069;28;20019;-35
2022/08/03 00:35:24;;;;;;;1.77;1.67;;;;;;;30.19;32.95;96764.41;5095071;28;20074;-35
2022/08/03 00:37:50;;;;;;;1.98;1.60;;;;;;;30.27;32.76;96762.41;5094978;28;20028;-35
2022/08/03 00:40:17;;;;;;;2.10;1.60;;;;;;;30.22;32.63;96768.16;5095070;28;20428;-35
2022/08/03 00:42:45;;;;;;;1.77;1.67;;;;;;;30.24;32.72;96755.13;5094880;28;20386;-35
2022/08/03 00:45:11;;;;;;;1.60;1.50;;;;;;;30.20;32.83;96763.09;5094853;28;20040;-35
2022/08/03 00:47:37;;;;;;;2.28;1.70;;;;;;;30.21;32.86;96758.25;5095081;28;20450;-35
2022/08/03 00:50:02;;;;;;;3.30;1.67;;;;;;;30.17;33.21;96760.66;5094546;28;20032;-36
2022/08/03 00:52:28;;;;;;;2.15;1.60;;;;;;;30.26;32.96;96757.38;5094930;28;20366;-35
2022/08/03 00:54:53;;;;;;;1.75;1.55;;;;;;;30.15;33.07;96761.22;5094695;28;20124;-35
2022/08/03 00:57:19;;;;;;;1.70;1.60;;;;;;;30.18;32.82;96759.34;5094740;28;20481;-35
2022/08/03 00:59:45;;;;;;;1.70;1.60;;;;;;;30.19;32.85;96761.59;5094508;28;20107;-35
2022/08/03 01:02:10;;;;;;;2.00;1.65;;;;;;;30.23;33.00;96759.22;5094494;28;20535;-35
2022/08/03 01:04:35;;;;;;;1.70;1.50;;;;;;;30.07;33.41;96766.00;5094443;28;20496;-35
2022/08/03 01:07:14;;;;;;;1.80;1.70;;;;;;;30.26;33.10;96757.38;5094659;28;20024;-35
2022/08/03 01:09:45;;;;;;;1.85;1.60;;;;;;;30.12;32.89;96758.78;5094894;28;20024;-35
2022/08/03 01:12:36;;;;;;;2.05;1.58;;;;;;;30.20;32.71;96749.13;5094531;28;20486;-35
2022/08/03 01:15:30;;;;;;;2.85;1.60;;;;;;;30.15;32.72;96758.44;5094381;28;20030;-35
2022/08/03 01:18:05;;;;;;;1.55;1.45;;;;;;;30.29;32.80;96756.28;5084139;28;20032;-35
2022/08/03 01:20:35;;;;;;;1.48;1.38;;;;;;;30.29;32.56;96757.00;5094361;28;20454;-35
2022/08/03 01:23:19;;;;;;;1.67;1.58;;;;;;;30.23;33.07;96752.88;5094195;28;20103;-35
2022/08/03 01:25:53;;;;;;;3.60;1.95;;;;;;;30.18;33.15;96757.31;5093308;28;20035;-35
2022/08/03 01:28:28;;;;;;;1.88;1.60;;;;;;;30.24;33.03;96757.91;5094080;28;20439;-35
2022/08/03 01:31:00;;;;;;;1.85;1.60;;;;;;;30.24;32.86;96757.16;5094052;28;20032;-35
2022/08/03 01:33:36;;;;;;;1.83;1.73;;;;;;;30.18;33.10;96750.97;5094066;28;20016;-35
2022/08/03 01:36:06;;;;;;;2.00;1.80;;;;;;;30.21;32.93;96761.81;5093097;28;20047;-36
2022/08/03 01:38:34;;;;;;;3.45;1.80;;;;;;;30.21;33.25;96752.66;5094145;28;20101;-35
2022/08/03 01:41:07;;;;;;;1.60;1.50;;;;;;;30.17;32.94;96750.22;5093847;28;20473;-35
2022/08/03 01:43:34;;;;;;;2.38;1.90;;;;;;;30.18;33.25;96750.97;5094396;28;20028;-35
2022/08/03 01:46:01;;;;;;;1.75;1.65;;;;;;;30.15;33.01;96747.25;5093494;28;20101;-35
2022/08/03 01:48:29;;;;;;;2.45;1.70;;;;;;;30.04;33.53;96747.56;5093751;28;20106;-35
2022/08/03 01:50:55;;;;;;;1.70;1.60;;;;;;;30.18;33.07;96756.56;5092444;28;20044;-35
2022/08/03 01:53:22;;;;;;;2.25;1.70;;;;;;;30.25;33.27;96751.03;5093771;28;20024;-35
2022/08/03 01:55:51;;;;;;;1.88;1.77;;;;;;;30.22;32.94;96746.53;5093533;28;20111;-35
2022/08/03 01:58:18;;;;;;;1.88;1.60;;;;;;;30.21;33.20;96744.28;5092245;28;20355;-35
2022/08/03 02:00:46;;;;;;;1.60;1.50;;;;;;;30.11;33.08;96741.25;5093700;28;20020;-35
2022/08/03 02:03:13;;;;;;;1.83;1.73;;;;;;;30.12;33.40;96739.94;5093457;28;20107;-35
2022/08/03 02:05:40;;;;;;;3.00;1.80;;;;;;;30.10;33.56;96741.78;5093640;28;20035;-35
2022/08/03 02:08:09;;;;;;;1.80;1.70;;;;;;;30.17;33.53;96743.88;5093538;28;20027;-35
2022/08/03 02:10:36;;;;;;;2.58;1.70;;;;;;;30.24;33.38;96738.34;5093454;28;20099;-34
2022/08/03 02:13:04;;;;;;;2.05;1.85;;;;;;;30.17;33.58;96744.63;5093473;28;20024;-34
2022/08/03 02:15:31;;;;;;;1.73;1.63;;;;;;;30.18;33.45;96739.78;5093399;28;20016;-35
2022/08/03 02:17:59;;;;;;;2.10;1.60;;;;;;;30.15;33.49;96740.91;5093307;28;20035;-35
2022/08/03 02:20:26;;;;;;;2.20;1.70;;;;;;;30.09;33.44;96738.25;5093561;28;20447;-35
2022/08/03 02:22:51;;;;;;;1.75;1.65;;;;;;;30.10;33.83;96744.59;5093297;28;20024;-35
2022/08/03 02:25:17;;;;;;;1.73;1.63;;;;;;;30.17;33.65;96733.44;5093597;28;20102;-34
2022/08/03 02:27:50;;;;;;;2.00;1.80;;;;;;;30.18;33.50;96734.94;5093285;28;20031;-35
2022/08/03 02:30:16;;;;;;;1.90;1.80;;;;;;;30.20;33.48;96737.19;5093433;28;20497;-35
2022/08/03 02:32:50;;;;;;;2.55;1.80;;;;;;;30.15;33.65;96738.84;5093359;28;20024;-34
2022/08/03 02:35:19;;;;;;;2.13;1.90;;;;;;;30.24;33.45;96727.16;5093149;28;20405;-35
2022/08/03 02:37:51;;;;;;;1.80;1.70;;;;;;;30.20;33.83;96737.94;5096954;28;20023;-34
2022/08/03 02:40:21;;;;;;;2.58;1.83;;;;;;;30.23;33.56;96736.84;5097329;28;20049;-34
2022/08/03 02:42:50;;;;;;;2.17;1.90;;;;;;;30.20;33.48;96729.53;5097597;28;20036;-36
2022/08/03 02:45:18;;;;;;;2.10;1.90;;;;;;;30.20;33.90;96731.59;5096945;28;20133;-35
2022/08/03 02:47:45;;;;;;;1.48;1.38;;;;;;;30.24;33.89;96729.19;5097138;28;20031;-35
2022/08/03 02:50:13;;;;;;;2.22;1.85;;;;;;;30.15;33.86;96726.91;5097410;28;20413;-34
2022/08/03 02:52:40;;;;;;;1.80;1.70;;;;;;;30.11;34.25;96734.91;5097106;28;20027;-34
2022/08/03 02:55:09;;;;;;;1.92;1.80;;;;;;;30.22;33.74;96729.75;5096976;28;20118;-35
2022/08/03 02:57:36;;;;;;;2.25;2.05;;;;;;;30.23;34.17;96724.91;5097048;28;20028;-34
2022/08/03 03:00:03;;;;;;;1.80;1.70;;;;;;;30.16;34.20;96731.97;5096894;28;20035;-35
2022/08/03 03:02:29;;;;;;;1.90;1.80;;;;;;;30.25;33.76;96725.84;5096765;28;20054;-34
2022/08/03 03:04:55;;;;;;;2.20;2.00;;;;;;;30.24;33.95;96726.41;5096781;28;20036;-34
2022/08/03 03:07:21;;;;;;;2.00;1.88;;;;;;;30.27;33.73;96728.09;5096785;28;20028;-34
2022/08/03 03:09:47;;;;;;;1.85;1.75;;;;;;;30.17;34.36;96727.84;5096859;28;20407;-34
2022/08/03 03:12:15;;;;;;;1.95;1.85;;;;;;;30.17;34.43;96727.84;5096762;28;20027;-35
2022/08/03 03:14:40;;;;;;;2.45;2.25;;;;;;;30.16;34.43;96729.16;5096694;28;20462;-36
2022/08/03 03:17:11;;;;;;;2.97;2.13;;;;;;;30.15;34.56;96724.88;5096546;28;20054;-34
2022/08/03 03:19:38;;;;;;;2.83;1.80;;;;;;;30.15;34.23;96722.06;5097066;28;20028;-34
2022/08/03 03:22:06;;;;;;;2.22;2.00;;;;;;;30.22;34.19;96731.78;5096640;28;20056;-34
2022/08/03 03:24:33;;;;;;;3.97;2.13;;;;;;;30.16;34.17;96725.63;5095516;28;20024;-35
2022/08/03 03:26:59;;;;;;;1.92;1.80;;;;;;;30.10;34.32;96716.63;5096404;28;20026;-35
2022/08/03 03:29:26;;;;;;;2.00;1.80;;;;;;;30.11;34.36;96730.06;5096539;28;20107;-34
2022/08/03 03:31:52;;;;;;;1.80;1.70;;;;;;;30.13;34.39;96721.13;5096295;28;20067;-35
2022/08/03 03:34:18;;;;;;;2.53;2.20;;;;;;;30.20;34.37;96721.16;5096256;28;20035;-35
2022/08/03 03:36:43;;;;;;;2.17;1.98;;;;;;;30.18;34.90;96723.75;5096244;28;20024;-35
2022/08/03 03:39:09;;;;;;;2.67;2.10;;;;;;;30.19;34.76;96728.03;5094982;28;20027;-34
2022/08/03 03:41:35;;;;;;;1.90;1.80;;;;;;;30.21;34.31;96728.25;5094403;28;20409;-34
2022/08/03 03:44:01;;;;;;;2.50;2.30;;;;;;;30.20;34.61;96729.53;5095007;28;20023;-34
2022/08/03 03:46:27;;;;;;;2.45;2.28;;;;;;;30.09;34.92;96727.06;5095407;28;20478;-35
2022/08/03 03:48:52;;;;;;;2.80;2.00;;;;;;;30.22;34.96;96735.34;5094600;28;20355;-35
2022/08/03 03:51:18;;;;;;;2.45;2.25;;;;;;;30.22;34.66;96735.34;5095355;28;20032;-35
2022/08/03 03:53:57;;;;;;;2.22;2.05;;;;;;;30.20;34.55;96735.13;5095892;28;20096;-34
2022/08/03 03:56:23;;;;;;;2.08;1.98;;;;;;;30.15;34.93;96735.31;5095899;28;20028;-35
2022/08/03 03:58:49;;;;;;;2.63;2.20;;;;;;;30.22;34.96;96742.97;5096093;28;20378;-35
2022/08/03 04:01:15;;;;;;;2.00;1.90;;;;;;;30.23;34.79;96739.63;5095772;28;20054;-36
2022/08/03 04:03:41;;;;;;;2.95;2.00;;;;;;;30.12;35.46;96742.75;5095823;28;20035;-34
2022/08/03 04:11:37;;;;;;;2.17;1.98;;;;;;;30.18;35.11;96740.53;5095602;28;20028;-35
2022/08/03 04:14:08;;;;;;;2.13;1.92;;;;;;;30.13;35.36;96744.25;5095499;28;20023;-35
2022/08/03 04:16:37;;;;;;;3.20;1.90;;;;;;;30.18;35.59;96740.53;5095617;28;20024;-35
2022/08/03 04:19:23;;;;;;;3.33;2.50;;;;;;;30.18;35.40;96745.38;5095467;28;20398;-34
2022/08/03 04:21:56;;;;;;;2.42;2.17;;;;;;;30.14;35.22;96740.16;5095110;28;20031;-35
2022/08/03 04:24:24;;;;;;;3.60;2.22;;;;;;;30.17;35.28;96743.88;5095496;28;20020;-34
2022/08/03 04:26:50;;;;;;;3.10;2.00;;;;;;;30.18;35.31;96745.38;5095090;28;20427;-35
2022/08/03 04:29:18;;;;;;;3.15;2.22;;;;;;;30.20;35.04;96746.31;5095517;28;20019;-34
2022/08/03 04:31:45;;;;;;;2.13;1.92;;;;;;;30.15;35.49;96752.84;5095611;28;20024;-34
2022/08/03 04:34:11;;;;;;;2.53;2.10;;;;;;;30.14;35.34;96754.13;5095290;28;20032;-34
2022/08/03 04:36:47;;;;;;;2.50;2.30;;;;;;;30.14;35.36;96754.13;5094959;28;20035;-35
2022/08/03 04:39:18;;;;;;;2.70;2.00;;;;;;;30.11;35.61;96760.06;5095085;28;20024;-34
2022/08/03 04:41:45;;;;;;;3.20;2.25;;;;;;;30.15;35.69;96758.44;5094926;28;20125;-34
2022/08/03 04:44:13;;;;;;;3.50;2.20;;;;;;;30.13;35.47;96765.88;5094965;28;20111;-34
2022/08/03 04:46:40;;;;;;;3.58;1.90;;;;;;;30.14;35.86;96768.13;5094666;28;20048;-34
2022/08/03 04:49:05;;;;;;;2.40;2.20;;;;;;;30.16;35.68;96768.31;5094741;28;20016;-34
2022/08/03 04:51:37;;;;;;;7.38;2.47;;;;;;;30.15;35.99;96774.47;5094743;28;20027;-34
2022/08/03 04:54:03;;;;;;;2.33;2.13;;;;;;;30.15;35.83;96774.47;5095096;28;20024;-35
2022/08/03 04:56:28;;;;;;;2.60;2.40;;;;;;;30.14;35.51;96779.31;5094596;28;20538;-35
2022/08/03 04:58:54;;;;;;;2.58;2.38;;;;;;;30.16;35.64;96787.91;5094801;28;20035;-34
2022/08/03 05:01:19;;;;;;;3.20;2.63;;;;;;;30.13;35.82;96783.41;5094532;28;20050;-34
2022/08/03 05:03:45;;;;;;;2.95;2.20;;;;;;;30.10;36.06;96789.34;5094656;28;20024;-34
2022/08/03 05:06:11;;;;;;;2.55;2.08;;;;;;;30.06;36.45;96789.69;5094591;28;20026;-34
2022/08/03 05:08:38;;;;;;;3.05;2.20;;;;;;;30.09;35.72;96785.78;5094480;28;20028;-35
2022/08/03 05:11:03;;;;;;;3.25;2.35;;;;;;;30.09;36.15;96788.59;5094518;28;20020;-35
2022/08/03 05:13:29;;;;;;;4.47;2.30;;;;;;;30.04;36.21;96792.31;5094319;28;20027;-35
2022/08/03 05:15:54;;;;;;;2.45;2.25;;;;;;;30.07;36.48;96790.44;5094273;28;20024;-34
2022/08/03 05:18:20;;;;;;;3.28;2.10;;;;;;;30.04;35.88;96792.31;5094292;28;20028;-34
2022/08/03 05:20:46;;;;;;;3.53;2.00;;;;;;;29.99;36.67;96796.72;5093473;28;20020;-35
2022/08/03 05:23:11;;;;;;;4.43;2.17;;;;;;;30.07;35.92;96796.78;5094201;28;20016;-35
2022/08/03 05:25:37;;;;;;;2.55;2.25;;;;;;;29.96;36.40;96792.22;5094239;28;20016;-35
2022/08/03 05:28:03;;;;;;;4.40;2.10;;;;;;;30.04;36.10;96794.34;5094156;28;20510;-35
2022/08/03 05:30:29;;;;;;;2.53;2.25;;;;;;;30.04;36.70;96791.56;5093740;28;20157;-34
2022/08/03 05:32:55;;;;;;;4.65;2.10;;;;;;;29.98;36.68;96794.47;5093960;28;20106;-34
2022/08/03 05:35:20;;;;;;;2.33;2.17;;;;;;;30.02;36.50;96800.47;5093966;28;20162;-35
2022/08/03 05:37:46;;;;;;;2.78;2.17;;;;;;;30.06;36.66;96798.06;5092617;28;20036;-34
2022/08/03 05:40:12;;;;;;;2.85;2.10;;;;;;;30.08;36.21;96797.53;5090998;28;20028;-34
2022/08/03 05:42:38;;;;;;;4.38;2.20;;;;;;;30.07;36.84;96796.78;5092496;28;20035;-34
2022/08/03 05:45:13;;;;;;;4.55;2.30;;;;;;;30.09;36.40;96794.19;5081128;28;20048;-34
2022/08/03 05:47:40;;;;;;;4.05;2.00;;;;;;;30.08;36.26;96800.31;5072018;28;20032;-35
2022/08/03 05:50:06;;;;;;;3.03;2.30;;;;;;;30.03;36.64;96796.41;5071568;28;20056;-35
2022/08/03 05:52:32;;;;;;;4.00;2.40;;;;;;;29.99;36.87;96801.56;5071976;28;20470;-35
2022/08/03 05:54:57;;;;;;;5.65;2.40;;;;;;;30.07;36.30;96802.38;5071767;28;20032;-35
2022/08/03 05:57:23;;;;;;;4.82;2.25;;;;;;;30.01;36.80;96810.16;5083728;28;20032;-35
2022/08/03 05:59:49;;;;;;;9.95;2.67;;;;;;;29.99;36.54;96801.56;5092086;28;20027;-34
2022/08/03 06:02:14;;;;;;;14.55;3.20;;;;;;;30.00;36.80;96805.88;5091994;28;20071;-35
2022/08/03 06:04:40;;;;;;;10.25;2.97;;;;;;;30.00;37.01;96803.81;5091965;28;20032;-35
2022/08/03 06:07:06;;;;;;;13.52;3.55;;;;;;;30.02;36.67;96808.13;5090100;28;20038;-36
2022/08/03 06:09:31;;;;;;;10.98;2.67;;;;;;;29.95;36.73;96812.31;5091625;28;20020;-34
2022/08/03 06:11:57;;;;;;;7.80;2.80;;;;;;;30.06;36.95;96808.50;5091133;28;20505;-34
2022/08/03 06:14:22;;;;;;;7.68;2.45;;;;;;;30.04;36.44;96809.09;5091748;28;20036;-35
2022/08/03 06:16:47;;;;;;;9.52;2.80;;;;;;;30.02;36.86;96813.72;5091913;28;20031;-35
2022/08/03 06:19:13;;;;;;;6.85;2.33;;;;;;;30.05;36.86;96821.00;5091734;28;20020;-35
2022/08/03 06:21:38;;;;;;;6.90;2.30;;;;;;;30.01;37.07;96810.16;5091629;28;20107;-34
2022/08/03 06:24:04;;;;;;;4.93;2.40;;;;;;;30.06;36.64;96817.66;5085647;28;20035;-34
2022/08/03 06:26:31;;;;;;;2.83;2.20;;;;;;;30.03;37.08;96812.44;5073448;28;20501;-34
2022/08/03 06:28:57;;;;;;;4.60;2.60;;;;;;;30.03;36.75;96818.75;5071488;28;20939;-35
2022/08/03 06:31:24;;;;;;;4.55;2.45;;;;;;;30.07;36.73;96819.16;5071507;28;20099;-35
2022/08/03 06:33:50;;;;;;;4.25;2.58;;;;;;;30.03;36.64;96824.38;5071528;28;20025;-35
2022/08/03 06:36:16;;;;;;;2.70;2.00;;;;;;;29.99;36.79;96827.50;5071383;28;20024;-35
2022/08/03 06:38:41;;;;;;;3.83;2.30;;;;;;;30.02;36.72;96830.50;5071170;28;20393;-35
2022/08/03 06:41:07;;;;;;;8.15;2.55;;;;;;;30.04;36.42;96830.69;5071557;28;20104;-35
2022/08/03 06:43:36;;;;;;;3.25;2.20;;;;;;;30.05;36.86;96827.34;5071205;28;20393;-34
2022/08/03 06:46:02;;;;;;;4.63;2.55;;;;;;;30.05;36.39;96830.13;5071198;28;20501;-35
2022/08/03 06:48:27;;;;;;;4.07;2.13;;;;;;;29.98;36.68;96834.38;5071300;28;20085;-35
2022/08/03 06:50:53;;;;;;;5.03;2.10;;;;;;;29.98;36.69;96834.38;5071142;28;20050;-34
2022/08/03 06:53:18;;;;;;;6.20;2.70;;;;;;;30.03;36.51;96835.53;5071377;28;20020;-34
2022/08/03 06:55:44;;;;;;;3.15;2.13;;;;;;;30.05;36.42;96841.31;5071347;28;20039;-34
2022/08/03 06:58:09;;;;;;;4.55;2.33;;;;;;;30.05;36.79;96837.78;5071275;28;20378;-35
2022/08/03 07:00:34;;;;;;;2.97;2.40;;;;;;;30.05;36.29;96837.78;5071053;28;20023;-35
2022/08/03 07:03:00;;;;;;;4.35;2.17;;;;;;;30.05;36.56;96834.97;5069426;28;20036;-35
2022/08/03 07:05:25;;;;;;;3.75;2.60;;;;;;;30.04;36.37;96839.84;5069343;28;20177;-34
2022/08/03 07:07:55;;;;;;;3.28;1.98;;;;;;;29.94;37.06;96844.38;5070387;28;20433;-35
2022/08/03 07:10:20;;;;;;;2.65;1.80;;;;;;;30.00;36.90;96842.22;5070707;28;20509;-34
2022/08/03 07:12:46;;;;;;;2.58;2.08;;;;;;;29.95;37.04;96843.84;5070933;28;20036;-35
2022/08/03 07:15:11;;;;;;;2.80;2.00;;;;;;;29.93;36.88;96843.63;5070738;28;20050;-35
2022/08/03 07:17:37;;;;;;;3.40;1.95;;;;;;;30.03;36.59;96838.34;5071145;28;20025;-34
2022/08/03 07:20:05;;;;;;;4.53;2.17;;;;;;;30.05;36.66;96829.38;5071710;28;20070;-35
2022/08/03 07:22:31;;;;;;;2.97;2.20;;;;;;;29.95;36.88;96835.44;5080116;28;20020;-34
2022/08/03 07:24:57;;;;;;;3.03;2.30;;;;;;;29.97;36.67;96843.31;5094749;28;20016;-34
2022/08/03 07:27:22;;;;;;;3.72;2.17;;;;;;;29.88;36.98;96846.56;5082670;28;20074;-35
2022/08/03 07:29:48;;;;;;;4.13;2.30;;;;;;;29.86;37.17;96849.16;5074232;28;20031;-34
2022/08/03 07:32:13;;;;;;;4.80;2.10;;;;;;;29.91;36.79;96842.69;5077260;28;20565;-34
2022/08/03 07:34:39;;;;;;;4.28;2.38;;;;;;;29.86;36.94;96840.78;5074238;28;20032;-35
2022/08/03 07:37:04;;;;;;;2.78;1.90;;;;;;;29.84;36.67;96848.94;5074413;28;20492;-35
2022/08/03 07:39:30;;;;;;;3.55;2.00;;;;;;;29.87;36.80;96850.66;5073961;28;20024;-34
2022/08/03 07:41:55;;;;;;;2.97;2.30;;;;;;;29.94;36.98;96849.97;5074378;28;20044;-35
2022/08/03 07:44:20;;;;;;;2.10;1.90;;;;;;;29.91;36.75;96845.50;5074380;28;20494;-34
2022/08/03 07:46:46;;;;;;;2.17;1.92;;;;;;;29.93;36.93;96859.66;5074089;28;20428;-35
2022/08/03 07:49:12;;;;;;;2.10;1.83;;;;;;;29.83;37.05;96861.44;5074061;28;20056;-34
2022/08/03 07:51:38;;;;;;;2.53;2.05;;;;;;;29.80;36.92;96854.88;5078240;28;20102;-35
2022/08/03 07:54:04;;;;;;;2.50;2.17;;;;;;;29.68;37.43;96856.44;5095841;28;20081;-35
2022/08/03 07:56:29;;;;;;;3.00;2.08;;;;;;;29.68;37.03;96856.44;5095057;28;20035;-35
2022/08/03 07:58:55;;;;;;;1.88;1.77;;;;;;;29.74;37.20;96862.66;5094962;28;20528;-34
2022/08/03 08:01:21;;;;;;;3.05;2.10;;;;;;;29.89;37.00;96860.00;5095777;28;20016;-34
2022/08/03 08:03:48;;;;;;;2.25;2.10;;;;;;;29.69;37.66;96857.19;5095696;28;20056;-35
2022/08/03 08:06:14;;;;;;;2.22;1.90;;;;;;;29.73;37.50;96855.56;5095612;28;20077;-35
2022/08/03 08:08:40;;;;;;;3.85;2.38;;;;;;;28.91;39.65;96857.66;5095402;28;20020;-34
2022/08/03 08:11:06;;;;;;;3.50;2.00;;;;;;;28.84;39.98;96849.91;5095134;28;20062;-33
2022/08/03 08:13:32;;;;;;;4.05;2.00;;;;;;;28.56;40.85;96849.72;5095418;28;20048;-34
2022/08/03 08:15:57;;;;;;;2.85;2.00;;;;;;;29.21;39.50;96854.44;5095216;28;20028;-35
2022/08/03 08:18:23;;;;;;;3.53;2.20;;;;;;;29.26;39.48;96850.78;5095364;28;20069;-34
2022/08/03 08:20:49;;;;;;;2.53;2.33;;;;;;;29.47;39.24;96848.06;5095504;28;20043;-35
2022/08/03 08:23:21;;;;;;;4.10;2.50;;;;;;;29.27;39.83;96851.56;5095395;28;20107;-35
2022/08/03 08:25:47;;;;;;;3.57;2.10;;;;;;;29.42;39.31;96848.19;5095240;28;20042;-34
2022/08/03 08:28:13;;;;;;;3.80;2.40;;;;;;;29.26;39.63;96850.03;5095267;28;20107;-34
2022/08/03 08:30:39;;;;;;;7.80;2.35;;;;;;;29.43;39.25;96849.69;5095234;28;20099;-34
2022/08/03 08:33:12;;;;;;;3.92;1.90;;;;;;;29.38;39.19;96853.38;5095121;28;20474;-34
2022/08/03 08:35:37;;;;;;;7.82;2.58;;;;;;;29.50;39.17;96844.19;5094669;28;20066;-35
2022/08/03 08:38:03;;;;;;;2.90;2.13;;;;;;;29.63;38.73;96854.56;5094888;28;20043;-34
2022/08/03 08:40:28;;;;;;;2.67;2.33;;;;;;;29.52;39.07;96852.03;5095541;28;20450;-35
2022/08/03 08:42:54;;;;;;;2.60;2.22;;;;;;;29.67;38.25;96852.91;5094916;28;20028;-34
2022/08/03 08:45:19;;;;;;;3.08;2.47;;;;;;;29.54;38.78;96853.00;5093516;28;20044;-34
2022/08/03 08:47:47;;;;;;;3.78;2.72;;;;;;;29.44;39.08;96853.97;5094922;28;20016;-34
2022/08/03 08:50:16;;;;;;;2.90;2.63;;;;;;;29.39;39.21;96858.41;5094730;28;20024;-34
2022/08/03 08:52:45;;;;;;;2.63;2.42;;;;;;;29.44;38.49;96860.31;5094780;28;20058;-35
2022/08/03 08:55:13;;;;;;;3.92;2.20;;;;;;;29.38;39.00;96856.91;5094853;28;20028;-34
2022/08/03 08:57:48;;;;;;;2.63;2.13;;;;;;;29.72;38.30;96867.28;5094759;28;20024;-34
2022/08/03 09:00:14;;;;;;;4.07;2.38;;;;;;;29.76;37.98;96859.31;5094595;28;20169;-34
2022/08/03 09:02:43;;;;;;;3.20;1.98;;;;;;;29.80;38.18;96868.09;5093303;28;20583;-34
2022/08/03 09:05:14;;;;;;;2.53;2.30;;;;;;;29.54;38.13;96863.41;5094817;28;20496;-34
2022/08/03 09:07:41;;;;;;;3.60;2.70;;;;;;;29.62;38.13;96859.41;5094586;28;20035;-34
2022/08/03 09:10:09;;;;;;;2.30;2.00;;;;;;;29.81;37.96;96864.00;5094716;28;20032;-34
2022/08/03 09:12:52;;;;;;;2.92;2.60;;;;;;;29.83;38.01;96869.81;5094774;28;20054;-34
2022/08/03 09:15:37;;;;;;;2.35;2.03;;;;;;;29.84;38.05;96865.72;5094623;28;20039;-34
2022/08/03 09:18:04;;;;;;;4.65;2.30;;;;;;;29.77;38.47;96869.22;5094407;28;20020;-35
2022/08/03 09:20:32;;;;;;;2.42;2.22;;;;;;;29.69;38.13;96865.59;5094321;28;20016;-34
2022/08/03 09:23:16;;;;;;;3.88;2.03;;;;;;;29.74;37.81;96864.72;5094227;28;20020;-35
2022/08/03 09:25:42;;;;;;;2.47;2.25;;;;;;;29.80;37.89;96868.09;5094433;28;20390;-34
2022/08/03 09:28:13;;;;;;;3.28;2.33;;;;;;;29.54;38.27;96860.63;5094084;28;20042;-34
2022/08/03 09:30:45;;;;;;;3.42;2.13;;;;;;;29.76;37.99;96870.50;5094646;28;20024;-34
2022/08/03 09:33:12;;;;;;;2.35;2.15;;;;;;;29.87;37.18;96871.00;5094280;28;20027;-34
2022/08/03 09:35:41;;;;;;;2.67;2.47;;;;;;;29.76;37.94;96865.69;5093924;28;20028;-34
2022/08/03 09:38:16;;;;;;;2.58;2.15;;;;;;;29.75;37.93;96871.81;5094509;28;20156;-34
2022/08/03 09:40:43;;;;;;;5.85;2.35;;;;;;;29.88;37.64;96868.94;5094017;28;20016;-34
2022/08/03 09:43:09;;;;;;;2.40;2.20;;;;;;;29.91;37.19;96867.84;5093683;28;20480;-35
2022/08/03 09:45:38;;;;;;;2.45;2.25;;;;;;;29.73;37.39;96863.97;5093055;28;20048;-34
2022/08/03 09:48:28;;;;;;;3.20;2.17;;;;;;;29.87;37.49;96861.84;5093796;28;20107;-35
2022/08/03 09:50:57;;;;;;;4.97;2.13;;;;;;;29.86;37.18;96860.34;5092312;28;20073;-35
2022/08/03 09:53:23;;;;;;;5.40;2.75;;;;;;;29.78;37.25;96857.50;5092813;28;20027;-34
2022/08/03 09:55:52;;;;;;;2.40;2.15;;;;;;;29.89;37.35;96859.25;5093736;28;20053;-35
2022/08/03 09:58:20;;;;;;;3.33;2.33;;;;;;;29.85;37.25;96858.84;5093598;28;20020;-35
2022/08/03 10:00:58;;;;;;;3.30;2.33;;;;;;;29.86;37.46;96854.75;5093620;28;20020;-34
2022/08/03 10:03:26;;;;;;;3.38;3.00;;;;;;;29.91;37.09;96851.84;5093404;28;20035;-34
2022/08/03 10:05:52;;;;;;;3.58;2.00;;;;;;;29.93;36.99;96851.25;5093767;28;20031;-35
2022/08/03 10:08:18;;;;;;;2.25;2.05;;;;;;;29.96;36.86;96858.59;5093667;28;20078;-34
2022/08/03 10:10:46;;;;;;;2.42;2.20;;;;;;;29.95;36.65;96852.22;5074688;28;20028;-34
2022/08/03 10:13:14;;;;;;;2.33;2.13;;;;;;;29.92;36.53;96844.19;5071647;28;20157;-34
2022/08/03 10:15:40;;;;;;;2.60;2.40;;;;;;;29.93;36.80;96852.00;5076934;28;20092;-34
2022/08/03 10:18:06;;;;;;;2.92;2.30;;;;;;;29.94;36.76;96844.38;5079930;28;20024;-34
2022/08/03 10:20:36;;;;;;;3.20;2.40;;;;;;;29.98;36.41;96839.97;5084663;28;20058;-35
2022/08/03 10:23:04;;;;;;;3.97;2.33;;;;;;;29.97;36.55;96837.72;5081104;28;20475;-34
2022/08/03 10:25:32;;;;;;;2.72;2.40;;;;;;;29.96;36.58;96842.56;5071597;28;20030;-35
2022/08/03 10:28:03;;;;;;;2.40;2.20;;;;;;;29.94;36.21;96835.97;5071300;28;20058;-35
2022/08/03 10:30:31;;;;;;;3.50;2.15;;;;;;;29.96;36.53;96836.97;5071644;28;20036;-35
2022/08/03 10:33:14;;;;;;;4.43;2.22;;;;;;;29.95;36.37;96831.91;5071274;28;20021;-34
2022/08/03 10:35:40;;;;;;;2.40;2.20;;;;;;;30.01;36.42;96835.34;5071439;28;20023;-35
2022/08/03 10:38:16;;;;;;;2.88;2.10;;;;;;;30.04;36.20;96837.06;5071094;28;20039;-34
2022/08/03 10:40:42;;;;;;;3.42;2.08;;;;;;;30.02;35.97;96828.44;5073965;28;20027;-34
2022/08/03 10:43:20;;;;;;;3.42;2.55;;;;;;;30.00;36.33;96819.84;5083882;28;20074;-35
2022/08/03 10:45:45;;;;;;;2.50;2.30;;;;;;;30.01;36.03;96821.34;5072014;28;20090;-34
2022/08/03 10:48:12;;;;;;;2.70;2.25;;;;;;;30.05;36.10;96821.00;5071971;28;20111;-35
2022/08/03 10:50:40;;;;;;;2.45;2.13;;;;;;;30.00;36.69;96820.59;5071716;28;20036;-35
2022/08/03 10:53:06;;;;;;;2.67;2.03;;;;;;;30.03;36.58;96820.81;5073076;28;20463;-34
2022/08/03 10:58:37;;;;;;;2.70;2.50;;;;;;;30.08;36.26;96814.31;5076049;28;20111;-34
2022/08/03 11:01:07;;;;;;;2.50;2.17;;;;;;;30.03;36.76;96820.81;5076781;28;20020;-34
2022/08/03 11:03:33;;;;;;;2.67;2.20;;;;;;;30.00;36.73;96817.06;5076666;28;20055;-35
2022/08/03 11:06:20;;;;;;;2.00;1.90;;;;;;;30.03;36.58;96813.19;5076510;28;20045;-35
2022/08/03 11:08:47;;;;;;;2.78;2.28;;;;;;;30.05;36.51;96807.00;5075312;28;20020;-34
2022/08/03 11:11:16;;;;;;;3.65;2.45;;;;;;;30.00;36.64;96808.66;5076299;28;20025;-34
2022/08/03 11:14:09;;;;;;;2.55;2.17;;;;;;;29.98;36.98;96811.25;5076901;28;20518;-35
2022/08/03 11:16:35;;;;;;;2.92;2.13;;;;;;;30.04;36.57;96809.09;5079298;28;20038;-34
2022/08/03 11:19:05;;;;;;;3.08;2.10;;;;;;;30.04;36.85;96813.91;5074697;28;20526;-34
2022/08/03 11:21:49;;;;;;;2.20;1.98;;;;;;;30.07;36.22;96810.75;5074752;28;20020;-35
2022/08/03 11:24:53;;;;;;;3.97;2.22;;;;;;;30.08;36.41;96812.25;5094410;28;20106;-34
2022/08/03 11:27:34;;;;;;;4.07;2.20;;;;;;;30.07;36.16;96812.81;5055382;28;20386;-34
2022/08/03 11:30:30;;;;;;;4.88;2.58;;;;;;;30.07;35.64;96799.56;5072076;28;20032;-34
2022/08/03 11:32:57;;;;;;;3.45;2.13;;;;;;;30.09;35.83;96793.44;5071452;28;20033;-34
2022/08/03 11:35:32;;;;;;;2.70;2.00;;;;;;;30.11;35.92;96797.19;5072027;28;20107;-34
2022/08/03 11:38:00;;;;;;;3.33;2.35;;;;;;;30.09;35.91;96794.19;5071780;28;20044;-34
2022/08/03 11:40:45;;;;;;;4.13;2.20;;;;;;;30.02;35.60;96789.28;5071190;28;20024;-34
2022/08/03 11:43:29;;;;;;;2.40;2.20;;;;;;;30.12;35.82;96787.50;5071926;28;20028;-35
2022/08/03 11:46:01;;;;;;;2.20;2.05;;;;;;;30.12;35.69;96784.69;5071868;28;20044;-34
2022/08/03 11:48:38;;;;;;;2.40;2.20;;;;;;;30.10;35.41;96783.75;5071816;28;20056;-35